sensor_id;sensor_type;location;lat;lon;timestamp;pressure;altitude;pressure_sealevel;temperature;humidity
26775;BME280;14362;51.902;7.626;2023-11-19T00:00:44;100420.22;;;9.14;92.72
26775;BME280;14362;51.902;7.626;2023-11-19T00:04:47;100421.06;;;9.16;92.48
26775;BME280;14362;51.902;7.626;2023-11-19T00:08:48;100413.03;;;9.24;92.90
26775;BME280;14362;51.902;7.626;2023-11-19T00:12:50;100404.19;;;9.27;92.75
26775;BME280;14362;51.902;7.626;2023-11-19T00:16:52;100409.34;;;9.31;92.35
26775;BME280;14362;51.902;7.626;2023-11-19T00:20:55;100412.81;;;9.33;93.01
26775;BME280;14362;51.902;7.626;2023-11-19T00:24:56;100416.22;;;9.37;92.86
26775;BME280;14362;51.902;7.626;2023-11-19T00:28:58;100410.03;;;9.39;93.03
26775;BME280;14362;51.902;7.626;2023-11-19T00:32:59;100395.97;;;9.42;92.85
26775;BME280;14362;51.902;7.626;2023-11-19T00:37:02;100404.69;;;9.44;92.73
26775;BME280;14362;51.902;7.626;2023-11-19T00:41:04;100376.59;;;9.48;92.95
26775;BME280;14362;51.902;7.626;2023-11-19T00:45:07;100371.25;;;9.51;92.86
26775;BME280;14362;51.902;7.626;2023-11-19T00:49:10;100359.00;;;9.50;92.75
26775;BME280;14362;51.902;7.626;2023-11-19T00:53:13;100346.63;;;9.55;92.68
26775;BME280;14362;51.902;7.626;2023-11-19T00:57:14;100345.66;;;9.59;92.65
26775;BME280;14362;51.902;7.626;2023-11-19T01:01:16;100346.47;;;9.61;92.93
26775;BME280;14362;51.902;7.626;2023-11-19T01:05:17;100344.59;;;9.66;92.65
26775;BME280;14362;51.902;7.626;2023-11-19T01:09:23;100344.44;;;9.72;92.86
26775;BME280;14362;51.902;7.626;2023-11-19T01:13:24;100346.94;;;9.79;92.83
26775;BME280;14362;51.902;7.626;2023-11-19T01:17:26;100342.53;;;9.79;92.86
26775;BME280;14362;51.902;7.626;2023-11-19T01:21:27;100352.09;;;9.82;93.14
26775;BME280;14362;51.902;7.626;2023-11-19T01:25:30;100338.91;;;9.85;92.87
26775;BME280;14362;51.902;7.626;2023-11-19T01:29:31;100338.84;;;9.86;92.93
26775;BME280;14362;51.902;7.626;2023-11-19T01:33:33;100337.88;;;9.90;92.92
26775;BME280;14362;51.902;7.626;2023-11-19T01:37:34;100337.78;;;9.94;92.85
26775;BME280;14362;51.902;7.626;2023-11-19T01:41:38;100328.16;;;9.94;93.01
26775;BME280;14362;51.902;7.626;2023-11-19T01:45:39;100309.69;;;9.96;92.83
26775;BME280;14362;51.902;7.626;2023-11-19T01:49:41;100308.69;;;10.00;92.98
26775;BME280;14362;51.902;7.626;2023-11-19T01:53:43;100299.88;;;10.02;92.93
26775;BME280;14362;51.902;7.626;2023-11-19T01:57:46;100300.69;;;10.04;92.89
26775;BME280;14362;51.902;7.626;2023-11-19T02:01:49;100282.09;;;10.11;93.15
26775;BME280;14362;51.902;7.626;2023-11-19T02:05:51;100273.19;;;10.16;92.89
26775;BME280;14362;51.902;7.626;2023-11-19T02:09:53;100270.47;;;10.19;93.13
26775;BME280;14362;51.902;7.626;2023-11-19T02:13:56;100268.53;;;10.26;92.92
26775;BME280;14362;51.902;7.626;2023-11-19T02:18:19;100266.63;;;10.31;93.06
26775;BME280;14362;51.902;7.626;2023-11-19T02:22:22;100273.53;;;10.37;92.76
26775;BME280;14362;51.902;7.626;2023-11-19T02:26:29;100269.97;;;10.39;93.14
26775;BME280;14362;51.902;7.626;2023-11-19T02:30:33;100272.44;;;10.44;93.03
26775;BME280;14362;51.902;7.626;2023-11-19T02:34:35;100272.31;;;10.49;92.99
26775;BME280;14362;51.902;7.626;2023-11-19T02:38:36;100270.31;;;10.57;93.11
26775;BME280;14362;51.902;7.626;2023-11-19T02:42:38;100248.31;;;10.60;93.11
26775;BME280;14362;51.902;7.626;2023-11-19T02:46:41;100250.75;;;10.66;93.24
26775;BME280;14362;51.902;7.626;2023-11-19T02:50:42;100222.63;;;10.68;93.17
26775;BME280;14362;51.902;7.626;2023-11-19T02:54:44;100224.31;;;10.69;93.19
26775;BME280;14362;51.902;7.626;2023-11-19T02:58:46;100230.31;;;10.74;93.10
26775;BME280;14362;51.902;7.626;2023-11-19T03:02:50;100204.75;;;10.78;92.88
26775;BME280;14362;51.902;7.626;2023-11-19T03:06:59;100216.88;;;10.83;93.27
26775;BME280;14362;51.902;7.626;2023-11-19T03:11:00;100216.00;;;10.83;92.92
26775;BME280;14362;51.902;7.626;2023-11-19T03:15:02;100205.41;;;10.86;92.89
26775;BME280;14362;51.902;7.626;2023-11-19T03:19:05;100208.69;;;10.93;93.31
26775;BME280;14362;51.902;7.626;2023-11-19T03:23:06;100212.13;;;10.95;93.28
26775;BME280;14362;51.902;7.626;2023-11-19T03:27:08;100204.13;;;10.98;93.37
26775;BME280;14362;51.902;7.626;2023-11-19T03:31:10;100210.91;;;11.05;93.27
26775;BME280;14362;51.902;7.626;2023-11-19T03:35:13;100207.44;;;11.04;93.12
26775;BME280;14362;51.902;7.626;2023-11-19T03:39:14;100212.59;;;11.08;93.12
26775;BME280;14362;51.902;7.626;2023-11-19T03:43:16;100224.81;;;11.10;93.07
26775;BME280;14362;51.902;7.626;2023-11-19T03:47:19;100219.34;;;11.16;93.07
26775;BME280;14362;51.902;7.626;2023-11-19T03:51:22;100230.91;;;11.12;92.92
26775;BME280;14362;51.902;7.626;2023-11-19T03:55:23;100234.53;;;11.08;92.77
26775;BME280;14362;51.902;7.626;2023-11-19T03:59:25;100242.44;;;11.08;92.34
26775;BME280;14362;51.902;7.626;2023-11-19T04:03:26;100222.28;;;11.07;92.47
26775;BME280;14362;51.902;7.626;2023-11-19T04:07:29;100230.53;;;10.96;92.03
26775;BME280;14362;51.902;7.626;2023-11-19T04:11:30;100237.78;;;10.88;91.51
26775;BME280;14362;51.902;7.626;2023-11-19T04:15:32;100215.28;;;10.78;91.38
26775;BME280;14362;51.902;7.626;2023-11-19T04:19:34;100225.34;;;10.65;91.24
26775;BME280;14362;51.902;7.626;2023-11-19T04:23:37;100227.34;;;10.57;91.62
26775;BME280;14362;51.902;7.626;2023-11-19T04:27:38;100223.88;;;10.56;91.75
26775;BME280;14362;51.902;7.626;2023-11-19T04:31:40;100237.94;;;10.55;90.99
26775;BME280;14362;51.902;7.626;2023-11-19T04:35:41;100234.41;;;10.56;91.40
26775;BME280;14362;51.902;7.626;2023-11-19T04:39:45;100233.16;;;10.68;91.37
26775;BME280;14362;51.902;7.626;2023-11-19T04:43:46;100218.97;;;10.72;91.12
26775;BME280;14362;51.902;7.626;2023-11-19T04:47:48;100213.91;;;10.66;90.61
26775;BME280;14362;51.902;7.626;2023-11-19T04:51:49;100224.53;;;10.63;90.45
26775;BME280;14362;51.902;7.626;2023-11-19T04:55:52;100227.06;;;10.66;90.88
26775;BME280;14362;51.902;7.626;2023-11-19T04:59:54;100234.97;;;10.66;90.78
26775;BME280;14362;51.902;7.626;2023-11-19T05:03:56;100248.97;;;10.66;90.25
26775;BME280;14362;51.902;7.626;2023-11-19T05:07:59;100243.63;;;10.69;89.75
26775;BME280;14362;51.902;7.626;2023-11-19T05:12:03;100243.63;;;10.69;89.18
26775;BME280;14362;51.902;7.626;2023-11-19T05:16:05;100252.78;;;10.58;89.34
26775;BME280;14362;51.902;7.626;2023-11-19T05:20:07;100257.44;;;10.48;89.19
26775;BME280;14362;51.902;7.626;2023-11-19T05:24:13;100260.09;;;10.46;89.42
26775;BME280;14362;51.902;7.626;2023-11-19T05:28:16;100266.94;;;10.53;89.16
26775;BME280;14362;51.902;7.626;2023-11-19T05:32:17;100261.75;;;10.50;88.70
26775;BME280;14362;51.902;7.626;2023-11-19T05:36:19;100253.22;;;10.42;89.04
26775;BME280;14362;51.902;7.626;2023-11-19T05:40:20;100248.81;;;10.43;88.69
26775;BME280;14362;51.902;7.626;2023-11-19T05:44:23;100261.22;;;10.37;88.55
26775;BME280;14362;51.902;7.626;2023-11-19T05:48:26;100247.16;;;10.38;88.68
26775;BME280;14362;51.902;7.626;2023-11-19T05:52:27;100256.78;;;10.39;88.30
26775;BME280;14362;51.902;7.626;2023-11-19T05:56:33;100247.00;;;10.45;88.05
26775;BME280;14362;51.902;7.626;2023-11-19T06:00:36;100253.13;;;10.45;87.18
26775;BME280;14362;51.902;7.626;2023-11-19T06:04:37;100249.53;;;10.48;86.75
26775;BME280;14362;51.902;7.626;2023-11-19T06:08:39;100255.78;;;10.44;86.69
26775;BME280;14362;51.902;7.626;2023-11-19T06:12:40;100250.47;;;10.45;86.48
26775;BME280;14362;51.902;7.626;2023-11-19T06:16:43;100256.69;;;10.43;86.38
26775;BME280;14362;51.902;7.626;2023-11-19T06:20:45;100260.22;;;10.42;86.56
26775;BME280;14362;51.902;7.626;2023-11-19T06:24:46;100265.31;;;10.48;86.05
26775;BME280;14362;51.902;7.626;2023-11-19T06:28:48;100255.63;;;10.50;85.98
26775;BME280;14362;51.902;7.626;2023-11-19T06:32:51;100260.94;;;10.48;86.32
26775;BME280;14362;51.902;7.626;2023-11-19T06:36:52;100277.53;;;10.50;85.87
26775;BME280;14362;51.902;7.626;2023-11-19T06:40:54;100280.25;;;10.47;85.81
26775;BME280;14362;51.902;7.626;2023-11-19T06:44:55;100293.50;;;10.44;85.25
26775;BME280;14362;51.902;7.626;2023-11-19T06:48:59;100298.75;;;10.44;85.51
26775;BME280;14362;51.902;7.626;2023-11-19T06:53:00;100306.66;;;10.44;85.23
26775;BME280;14362;51.902;7.626;2023-11-19T06:57:02;100301.44;;;10.43;85.12
26775;BME280;14362;51.902;7.626;2023-11-19T07:01:06;100310.28;;;10.40;84.85
26775;BME280;14362;51.902;7.626;2023-11-19T07:05:09;100304.25;;;10.35;85.49
26775;BME280;14362;51.902;7.626;2023-11-19T07:09:12;100309.50;;;10.36;85.15
26775;BME280;14362;51.902;7.626;2023-11-19T07:13:14;100317.31;;;10.39;84.78
26775;BME280;14362;51.902;7.626;2023-11-19T07:17:16;100322.31;;;10.49;84.06
26775;BME280;14362;51.902;7.626;2023-11-19T07:21:19;100317.75;;;10.55;82.92
26775;BME280;14362;51.902;7.626;2023-11-19T07:25:20;100309.94;;;10.52;83.19
26775;BME280;14362;51.902;7.626;2023-11-19T07:29:22;100324.06;;;10.50;82.92
26775;BME280;14362;51.902;7.626;2023-11-19T07:33:23;100331.91;;;10.51;83.47
26775;BME280;14362;51.902;7.626;2023-11-19T07:37:26;100332.81;;;10.50;84.06
26775;BME280;14362;51.902;7.626;2023-11-19T07:41:27;100331.06;;;10.51;83.70
26775;BME280;14362;51.902;7.626;2023-11-19T07:45:29;100329.06;;;10.59;83.60
26775;BME280;14362;51.902;7.626;2023-11-19T07:49:30;100337.81;;;10.60;83.15
26775;BME280;14362;51.902;7.626;2023-11-19T07:53:33;100355.44;;;10.58;83.33
26775;BME280;14362;51.902;7.626;2023-11-19T07:57:34;100363.97;;;10.66;83.08
26775;BME280;14362;51.902;7.626;2023-11-19T08:01:36;100367.59;;;10.62;83.16
26775;BME280;14362;51.902;7.626;2023-11-19T08:05:38;100372.59;;;10.71;82.53
26775;BME280;14362;51.902;7.626;2023-11-19T08:09:41;100369.91;;;10.72;82.62
26775;BME280;14362;51.902;7.626;2023-11-19T08:13:42;100376.03;;;10.75;81.77
26775;BME280;14362;51.902;7.626;2023-11-19T08:17:44;100362.03;;;10.72;82.18
26775;BME280;14362;51.902;7.626;2023-11-19T08:21:45;100373.44;;;10.71;82.58
26775;BME280;14362;51.902;7.626;2023-11-19T08:25:48;100377.88;;;10.71;82.30
26775;BME280;14362;51.902;7.626;2023-11-19T08:29:49;100381.25;;;10.76;81.80
26775;BME280;14362;51.902;7.626;2023-11-19T08:33:51;100397.88;;;10.78;82.02
26775;BME280;14362;51.902;7.626;2023-11-19T08:37:52;100380.19;;;10.82;81.44
26775;BME280;14362;51.902;7.626;2023-11-19T08:41:55;100387.34;;;10.78;81.68
26775;BME280;14362;51.902;7.626;2023-11-19T08:45:57;100388.09;;;10.82;81.49
26775;BME280;14362;51.902;7.626;2023-11-19T08:49:58;100394.19;;;10.84;81.62
26775;BME280;14362;51.902;7.626;2023-11-19T08:54:00;100397.47;;;10.92;80.55
26775;BME280;14362;51.902;7.626;2023-11-19T08:58:02;100383.53;;;10.88;80.41
26775;BME280;14362;51.902;7.626;2023-11-19T09:02:04;100395.38;;;11.03;80.05
26775;BME280;14362;51.902;7.626;2023-11-19T09:06:07;100397.38;;;10.95;80.71
26775;BME280;14362;51.902;7.626;2023-11-19T09:10:09;100396.34;;;11.01;81.03
26775;BME280;14362;51.902;7.626;2023-11-19T09:14:13;100402.25;;;11.09;80.76
26775;BME280;14362;51.902;7.626;2023-11-19T09:18:14;100400.59;;;11.07;80.50
26775;BME280;14362;51.902;7.626;2023-11-19T09:22:15;100413.56;;;11.13;79.97
26775;BME280;14362;51.902;7.626;2023-11-19T09:26:17;100409.22;;;11.12;80.08
26775;BME280;14362;51.902;7.626;2023-11-19T09:30:20;100406.34;;;11.19;79.53
26775;BME280;14362;51.902;7.626;2023-11-19T09:34:22;100416.91;;;11.18;80.05
26775;BME280;14362;51.902;7.626;2023-11-19T09:38:24;100406.38;;;11.18;79.74
26775;BME280;14362;51.902;7.626;2023-11-19T09:42:26;100408.16;;;11.17;79.42
26775;BME280;14362;51.902;7.626;2023-11-19T09:46:30;100409.75;;;11.23;78.93
26775;BME280;14362;51.902;7.626;2023-11-19T09:50:31;100401.78;;;11.25;79.21
26775;BME280;14362;51.902;7.626;2023-11-19T09:54:33;100393.75;;;11.29;79.04
26775;BME280;14362;51.902;7.626;2023-11-19T09:58:34;100396.31;;;11.31;78.25
26775;BME280;14362;51.902;7.626;2023-11-19T10:02:38;100387.47;;;11.33;78.45
26775;BME280;14362;51.902;7.626;2023-11-19T10:06:41;100390.94;;;11.35;77.84
26775;BME280;14362;51.902;7.626;2023-11-19T10:10:43;100386.44;;;11.39;78.39
26775;BME280;14362;51.902;7.626;2023-11-19T10:14:45;100379.84;;;11.52;76.58
26775;BME280;14362;51.902;7.626;2023-11-19T10:18:50;100375.91;;;11.66;76.84
26775;BME280;14362;51.902;7.626;2023-11-19T10:22:52;100373.31;;;11.64;77.26
26775;BME280;14362;51.902;7.626;2023-11-19T10:26:56;100376.03;;;11.63;77.22
26775;BME280;14362;51.902;7.626;2023-11-19T10:30:57;100381.25;;;11.64;76.62
26775;BME280;14362;51.902;7.626;2023-11-19T10:35:06;100363.03;;;11.57;77.24
26775;BME280;14362;51.902;7.626;2023-11-19T10:39:07;100360.56;;;11.52;76.86
26775;BME280;14362;51.902;7.626;2023-11-19T10:43:09;100373.56;;;11.57;76.63
26775;BME280;14362;51.902;7.626;2023-11-19T10:47:12;100370.69;;;11.64;76.48
26775;BME280;14362;51.902;7.626;2023-11-19T10:51:19;100361.03;;;11.63;76.63
26775;BME280;14362;51.902;7.626;2023-11-19T10:55:26;100353.19;;;11.62;76.49
26775;BME280;14362;51.902;7.626;2023-11-19T10:59:30;100361.03;;;11.63;75.83
26775;BME280;14362;51.902;7.626;2023-11-19T11:03:36;100361.28;;;11.57;76.84
26775;BME280;14362;51.902;7.626;2023-11-19T11:07:43;100354.41;;;11.51;76.85
26775;BME280;14362;51.902;7.626;2023-11-19T11:11:47;100368.41;;;11.53;77.17
26775;BME280;14362;51.902;7.626;2023-11-19T11:15:49;100364.63;;;11.62;75.93
26775;BME280;14362;51.902;7.626;2023-11-19T11:19:50;100355.19;;;11.82;76.29
26775;BME280;14362;51.902;7.626;2023-11-19T11:24:16;100350.63;;;11.87;76.07
26775;BME280;14362;51.902;7.626;2023-11-19T11:28:27;100347.81;;;11.92;75.40
26775;BME280;14362;51.902;7.626;2023-11-19T11:32:35;100357.38;;;11.96;76.11
26775;BME280;14362;51.902;7.626;2023-11-19T11:36:49;100347.72;;;11.96;75.36
26775;BME280;14362;51.902;7.626;2023-11-19T11:41:18;100355.19;;;11.82;76.26
26775;BME280;14362;51.902;7.626;2023-11-19T11:45:35;100366.06;;;11.71;76.60
26775;BME280;14362;51.902;7.626;2023-11-19T11:49:36;100354.78;;;11.67;77.01
26775;BME280;14362;51.902;7.626;2023-11-19T11:53:41;100353.97;;;11.65;77.46
26775;BME280;14362;51.902;7.626;2023-11-19T11:57:43;100354.09;;;11.61;77.37
26775;BME280;14362;51.902;7.626;2023-11-19T12:01:57;100355.84;;;11.62;77.01
26775;BME280;14362;51.902;7.626;2023-11-19T12:05:58;100338.19;;;11.64;77.40
26775;BME280;14362;51.902;7.626;2023-11-19T12:10:06;100330.03;;;11.71;77.45
26775;BME280;14362;51.902;7.626;2023-11-19T12:14:09;100328.00;;;11.80;76.84
26775;BME280;14362;51.902;7.626;2023-11-19T12:18:11;100332.91;;;11.91;75.49
26775;BME280;14362;51.902;7.626;2023-11-19T12:22:20;100328.34;;;11.97;75.91
26775;BME280;14362;51.902;7.626;2023-11-19T12:26:31;100325.53;;;12.02;75.75
26775;BME280;14362;51.902;7.626;2023-11-19T12:30:34;100322.72;;;12.07;75.75
26775;BME280;14362;51.902;7.626;2023-11-19T12:34:36;100316.81;;;12.00;75.62
26775;BME280;14362;51.902;7.626;2023-11-19T12:38:37;100306.34;;;11.97;76.61
26775;BME280;14362;51.902;7.626;2023-11-19T12:42:39;100321.22;;;11.99;75.83
26775;BME280;14362;51.902;7.626;2023-11-19T12:46:42;100307.47;;;11.90;76.06
26775;BME280;14362;51.902;7.626;2023-11-19T12:50:50;100308.38;;;11.88;76.31
26775;BME280;14362;51.902;7.626;2023-11-19T12:54:52;100306.63;;;11.87;76.21
26775;BME280;14362;51.902;7.626;2023-11-19T12:58:53;100297.81;;;11.88;76.41
26775;BME280;14362;51.902;7.626;2023-11-19T13:02:57;100296.25;;;11.83;76.25
26775;BME280;14362;51.902;7.626;2023-11-19T13:06:59;100291.19;;;11.77;75.37
26775;BME280;14362;51.902;7.626;2023-11-19T13:11:00;100278.19;;;11.70;74.71
26775;BME280;14362;51.902;7.626;2023-11-19T13:15:03;100279.81;;;11.75;74.94
26775;BME280;14362;51.902;7.626;2023-11-19T13:19:06;100291.94;;;11.80;74.86
26775;BME280;14362;51.902;7.626;2023-11-19T13:23:08;100293.09;;;11.98;74.61
26775;BME280;14362;51.902;7.626;2023-11-19T13:27:10;100286.44;;;12.13;74.10
26775;BME280;14362;51.902;7.626;2023-11-19T13:31:12;100284.88;;;12.08;73.41
26775;BME280;14362;51.902;7.626;2023-11-19T13:35:14;100286.63;;;12.07;73.83
26775;BME280;14362;51.902;7.626;2023-11-19T13:39:17;100280.44;;;12.08;73.16
26775;BME280;14362;51.902;7.626;2023-11-19T13:43:23;100276.28;;;12.01;73.26
26775;BME280;14362;51.902;7.626;2023-11-19T13:47:24;100272.88;;;11.99;73.68
26775;BME280;14362;51.902;7.626;2023-11-19T13:51:27;100266.78;;;11.97;73.18
26775;BME280;14362;51.902;7.626;2023-11-19T13:55:28;100277.31;;;11.97;73.54
26775;BME280;14362;51.902;7.626;2023-11-19T13:59:30;100280.78;;;11.99;72.86
26775;BME280;14362;51.902;7.626;2023-11-19T14:03:32;100283.91;;;12.10;72.79
26775;BME280;14362;51.902;7.626;2023-11-19T14:07:35;100271.72;;;12.06;72.70
26775;BME280;14362;51.902;7.626;2023-11-19T14:11:36;100284.91;;;12.06;72.71
26775;BME280;14362;51.902;7.626;2023-11-19T14:15:38;100277.88;;;12.07;72.37
26775;BME280;14362;51.902;7.626;2023-11-19T14:19:39;100286.16;;;11.94;72.98
26775;BME280;14362;51.902;7.626;2023-11-19T14:23:42;100286.28;;;11.91;73.44
26775;BME280;14362;51.902;7.626;2023-11-19T14:27:44;100288.34;;;11.83;73.89
26775;BME280;14362;51.902;7.626;2023-11-19T14:31:46;100290.41;;;11.73;74.44
26775;BME280;14362;51.902;7.626;2023-11-19T14:35:47;100296.78;;;11.67;75.21
26775;BME280;14362;51.902;7.626;2023-11-19T14:39:50;100286.25;;;11.66;75.30
26775;BME280;14362;51.902;7.626;2023-11-19T14:43:52;100285.41;;;11.65;75.07
26775;BME280;14362;51.902;7.626;2023-11-19T14:47:53;100270.44;;;11.66;74.73
26775;BME280;14362;51.902;7.626;2023-11-19T14:51:55;100280.06;;;11.67;74.72
26775;BME280;14362;51.902;7.626;2023-11-19T14:55:57;100278.59;;;11.58;75.28
26775;BME280;14362;51.902;7.626;2023-11-19T14:59:59;100273.56;;;11.52;75.88
26775;BME280;14362;51.902;7.626;2023-11-19T15:04:01;100283.28;;;11.50;76.54
26775;BME280;14362;51.902;7.626;2023-11-19T15:08:02;100274.75;;;11.42;78.29
26775;BME280;14362;51.902;7.626;2023-11-19T15:12:06;100264.56;;;11.31;78.79
26775;BME280;14362;51.902;7.626;2023-11-19T15:16:07;100270.28;;;11.17;79.91
26775;BME280;14362;51.902;7.626;2023-11-19T15:20:11;100274.91;;;11.09;80.80
26775;BME280;14362;51.902;7.626;2023-11-19T15:24:15;100270.06;;;10.95;81.83
26775;BME280;14362;51.902;7.626;2023-11-19T15:28:18;100265.97;;;10.86;82.49
26775;BME280;14362;51.902;7.626;2023-11-19T15:32:20;100272.41;;;10.76;83.17
26775;BME280;14362;51.902;7.626;2023-11-19T15:36:22;100271.72;;;10.69;83.53
26775;BME280;14362;51.902;7.626;2023-11-19T15:40:23;100281.50;;;10.65;83.75
26775;BME280;14362;51.902;7.626;2023-11-19T15:44:26;100279.81;;;10.63;84.04
26775;BME280;14362;51.902;7.626;2023-11-19T15:48:29;100281.69;;;10.59;84.73
26775;BME280;14362;51.902;7.626;2023-11-19T15:52:30;100289.09;;;10.45;84.87
26775;BME280;14362;51.902;7.626;2023-11-19T15:56:32;100284.97;;;10.36;85.38
26775;BME280;14362;51.902;7.626;2023-11-19T16:00:34;100284.06;;;10.37;85.42
26775;BME280;14362;51.902;7.626;2023-11-19T16:04:36;100274.44;;;10.36;85.45
26775;BME280;14362;51.902;7.626;2023-11-19T16:08:37;100286.66;;;10.38;85.50
26775;BME280;14362;51.902;7.626;2023-11-19T16:12:39;100276.22;;;10.35;85.13
26775;BME280;14362;51.902;7.626;2023-11-19T16:16:42;100284.06;;;10.37;85.12
26775;BME280;14362;51.902;7.626;2023-11-19T16:20:43;100282.22;;;10.39;84.64
26775;BME280;14362;51.902;7.626;2023-11-19T16:24:45;100272.44;;;10.44;84.70
26775;BME280;14362;51.902;7.626;2023-11-19T16:28:48;100283.91;;;10.43;84.26
26775;BME280;14362;51.902;7.626;2023-11-19T16:32:52;100295.38;;;10.41;84.21
26775;BME280;14362;51.902;7.626;2023-11-19T16:36:58;100297.84;;;10.45;83.69
26775;BME280;14362;51.902;7.626;2023-11-19T16:41:00;100310.94;;;10.48;83.50
26775;BME280;14362;51.902;7.626;2023-11-19T16:45:01;100297.78;;;10.48;83.81
26775;BME280;14362;51.902;7.626;2023-11-19T16:49:04;100294.22;;;10.51;83.62
26775;BME280;14362;51.902;7.626;2023-11-19T16:53:06;100300.53;;;10.44;84.32
26775;BME280;14362;51.902;7.626;2023-11-19T16:57:08;100300.63;;;10.41;84.53
26775;BME280;14362;51.902;7.626;2023-11-19T17:01:10;100320.84;;;10.38;85.17
26775;BME280;14362;51.902;7.626;2023-11-19T17:05:15;100325.31;;;10.35;85.58
26775;BME280;14362;51.902;7.626;2023-11-19T17:09:16;100321.03;;;10.31;85.67
26775;BME280;14362;51.902;7.626;2023-11-19T17:13:18;100320.34;;;10.24;86.17
26775;BME280;14362;51.902;7.626;2023-11-19T17:17:21;100318.78;;;10.17;86.73
26775;BME280;14362;51.902;7.626;2023-11-19T17:21:24;100322.28;;;10.17;86.58
26775;BME280;14362;51.902;7.626;2023-11-19T17:25:25;100319.72;;;10.14;86.88
26775;BME280;14362;51.902;7.626;2023-11-19T17:29:27;100315.41;;;10.12;87.31
26775;BME280;14362;51.902;7.626;2023-11-19T17:33:29;100314.41;;;10.16;86.97
26775;BME280;14362;51.902;7.626;2023-11-19T17:37:31;100301.34;;;10.13;86.88
26775;BME280;14362;51.902;7.626;2023-11-19T17:41:34;100305.66;;;10.15;86.47
26775;BME280;14362;51.902;7.626;2023-11-19T17:45:35;100316.88;;;10.22;86.03
26775;BME280;14362;51.902;7.626;2023-11-19T17:49:37;100307.34;;;10.18;86.27
26775;BME280;14362;51.902;7.626;2023-11-19T17:53:40;100308.25;;;10.17;86.18
26775;BME280;14362;51.902;7.626;2023-11-19T17:57:42;100306.44;;;10.19;86.20
26775;BME280;14362;51.902;7.626;2023-11-19T18:01:44;100313.50;;;10.17;86.48
26775;BME280;14362;51.902;7.626;2023-11-19T18:05:46;100305.50;;;10.21;86.35
26775;BME280;14362;51.902;7.626;2023-11-19T18:09:50;100303.78;;;10.20;86.38
26775;BME280;14362;51.902;7.626;2023-11-19T18:13:52;100307.25;;;10.21;86.25
26775;BME280;14362;51.902;7.626;2023-11-19T18:17:54;100307.25;;;10.21;86.58
26775;BME280;14362;51.902;7.626;2023-11-19T18:21:56;100304.63;;;10.21;86.60
26775;BME280;14362;51.902;7.626;2023-11-19T18:26:01;100292.25;;;10.25;86.50
26775;BME280;14362;51.902;7.626;2023-11-19T18:30:04;100291.47;;;10.21;86.45
26775;BME280;14362;51.902;7.626;2023-11-19T18:34:06;100294.16;;;10.19;86.58
26775;BME280;14362;51.902;7.626;2023-11-19T18:38:08;100303.00;;;10.17;86.88
26775;BME280;14362;51.902;7.626;2023-11-19T18:42:11;100290.63;;;10.20;86.88
26775;BME280;14362;51.902;7.626;2023-11-19T18:46:13;100299.50;;;10.16;86.79
26775;BME280;14362;51.902;7.626;2023-11-19T18:50:14;100292.56;;;10.14;87.23
26775;BME280;14362;51.902;7.626;2023-11-19T18:54:17;100286.59;;;10.07;88.01
26775;BME280;14362;51.902;7.626;2023-11-19T18:58:22;100266.53;;;10.03;88.39
26775;BME280;14362;51.902;7.626;2023-11-19T19:02:24;100273.63;;;10.01;88.16
26775;BME280;14362;51.902;7.626;2023-11-19T19:06:25;100277.22;;;9.97;88.73
26775;BME280;14362;51.902;7.626;2023-11-19T19:10:29;100274.63;;;9.95;88.94
26775;BME280;14362;51.902;7.626;2023-11-19T19:14:32;100261.41;;;9.98;88.76
26775;BME280;14362;51.902;7.626;2023-11-19T19:18:33;100264.09;;;9.95;88.85
26775;BME280;14362;51.902;7.626;2023-11-19T19:22:35;100256.25;;;9.94;89.01
26775;BME280;14362;51.902;7.626;2023-11-19T19:26:37;100263.16;;;9.98;89.10
26775;BME280;14362;51.902;7.626;2023-11-19T19:30:40;100257.16;;;9.93;89.42
26775;BME280;14362;51.902;7.626;2023-11-19T19:34:42;100253.72;;;9.90;89.40
26775;BME280;14362;51.902;7.626;2023-11-19T19:38:44;100254.56;;;9.91;89.44
26775;BME280;14362;51.902;7.626;2023-11-19T19:42:45;100256.41;;;9.89;89.61
26775;BME280;14362;51.902;7.626;2023-11-19T19:46:48;100247.63;;;9.88;89.58
26775;BME280;14362;51.902;7.626;2023-11-19T19:50:50;100239.75;;;9.88;89.75
26775;BME280;14362;51.902;7.626;2023-11-19T19:54:51;100241.53;;;9.88;89.79
26775;BME280;14362;51.902;7.626;2023-11-19T19:58:52;100244.09;;;9.89;89.85
26775;BME280;14362;51.902;7.626;2023-11-19T20:02:55;100235.44;;;9.86;89.71
26775;BME280;14362;51.902;7.626;2023-11-19T20:06:58;100238.03;;;9.87;90.08
26775;BME280;14362;51.902;7.626;2023-11-19T20:10:59;100238.09;;;9.84;90.13
26775;BME280;14362;51.902;7.626;2023-11-19T20:15:01;100226.75;;;9.84;89.92
26775;BME280;14362;51.902;7.626;2023-11-19T20:19:07;100226.69;;;9.85;90.00
26775;BME280;14362;51.902;7.626;2023-11-19T20:23:09;100226.75;;;9.84;89.99
26775;BME280;14362;51.902;7.626;2023-11-19T20:27:10;100234.66;;;9.82;90.09
26775;BME280;14362;51.902;7.626;2023-11-19T20:31:16;100226.78;;;9.81;90.39
26775;BME280;14362;51.902;7.626;2023-11-19T20:35:19;100218.97;;;9.79;90.55
26775;BME280;14362;51.902;7.626;2023-11-19T20:39:21;100224.16;;;9.81;90.66
26775;BME280;14362;51.902;7.626;2023-11-19T20:43:22;100226.78;;;9.82;90.87
26775;BME280;14362;51.902;7.626;2023-11-19T20:47:24;100226.75;;;9.84;90.37
26775;BME280;14362;51.902;7.626;2023-11-19T20:51:27;100236.34;;;9.85;90.71
26775;BME280;14362;51.902;7.626;2023-11-19T20:55:29;100222.38;;;9.83;90.57
26775;BME280;14362;51.902;7.626;2023-11-19T20:59:31;100230.16;;;9.86;90.78
26775;BME280;14362;51.902;7.626;2023-11-19T21:03:33;100226.69;;;9.85;90.85
26775;BME280;14362;51.902;7.626;2023-11-19T21:07:38;100229.91;;;9.95;90.85
26775;BME280;14362;51.902;7.626;2023-11-19T21:11:40;100238.75;;;9.93;90.72